sensor_id;sensor_type;location;lat;lon;timestamp;P1;durP1;ratioP1;P2;durP2;ratioP2
21095;SDS011;10706;49.036;12.112;2023-07-24T00:02:00;16.58;;;4.72;;
21095;SDS011;10706;49.036;12.112;2023-07-24T00:04:25;13.18;;;4.45;;
21095;SDS011;10706;49.036;12.112;2023-07-24T00:06:51;13.75;;;4.63;;
21095;SDS011;10706;49.036;12.112;2023-07-24T00:09:17;14.77;;;4.60;;
21095;SDS011;10706;49.036;12.112;2023-07-24T00:11:44;13.60;;;4.50;;
21095;SDS011;10706;49.036;12.112;2023-07-24T00:14:10;16.83;;;4.75;;
21095;SDS011;10706;49.036;12.112;2023-07-24T00:16:36;15.25;;;4.50;;
21095;SDS011;10706;49.036;12.112;2023-07-24T00:19:02;16.02;;;4.78;;
21095;SDS011;10706;49.036;12.112;2023-07-24T00:21:28;13.45;;;4.70;;
21095;SDS011;10706;49.036;12.112;2023-07-24T00:23:54;13.73;;;4.32;;
21095;SDS011;10706;49.036;12.112;2023-07-24T00:26:20;14.88;;;5.03;;
21095;SDS011;10706;49.036;12.112;2023-07-24T00:28:46;14.93;;;5.18;;
21095;SDS011;10706;49.036;12.112;2023-07-24T00:31:12;14.95;;;4.72;;
21095;SDS011;10706;49.036;12.112;2023-07-24T00:33:38;16.23;;;4.82;;
21095;SDS011;10706;49.036;12.112;2023-07-24T00:36:04;13.02;;;4.60;;
21095;SDS011;10706;49.036;12.112;2023-07-24T00:38:30;13.63;;;4.38;;
21095;SDS011;10706;49.036;12.112;2023-07-24T00:40:56;13.40;;;4.80;;
21095;SDS011;10706;49.036;12.112;2023-07-24T00:43:22;12.52;;;4.13;;
21095;SDS011;10706;49.036;12.112;2023-07-24T00:45:49;15.63;;;5.00;;
21095;SDS011;10706;49.036;12.112;2023-07-24T00:48:15;17.67;;;4.55;;
21095;SDS011;10706;49.036;12.112;2023-07-24T00:50:41;14.00;;;4.55;;
21095;SDS011;10706;49.036;12.112;2023-07-24T00:53:10;11.93;;;4.60;;
21095;SDS011;10706;49.036;12.112;2023-07-24T00:55:38;14.90;;;4.28;;
21095;SDS011;10706;49.036;12.112;2023-07-24T00:58:04;13.65;;;4.72;;
21095;SDS011;10706;49.036;12.112;2023-07-24T01:00:31;12.48;;;4.50;;
21095;SDS011;10706;49.036;12.112;2023-07-24T01:02:59;14.98;;;5.18;;
21095;SDS011;10706;49.036;12.112;2023-07-24T01:05:25;14.85;;;5.00;;
21095;SDS011;10706;49.036;12.112;2023-07-24T01:07:52;13.27;;;4.70;;
21095;SDS011;10706;49.036;12.112;2023-07-24T01:10:18;14.00;;;4.57;;
21095;SDS011;10706;49.036;12.112;2023-07-24T01:15:56;13.18;;;4.53;;
21095;SDS011;10706;49.036;12.112;2023-07-24T01:18:33;13.68;;;4.80;;
21095;SDS011;10706;49.036;12.112;2023-07-24T01:21:02;14.15;;;4.72;;
21095;SDS011;10706;49.036;12.112;2023-07-24T01:26:01;13.13;;;4.25;;
21095;SDS011;10706;49.036;12.112;2023-07-24T01:28:28;19.15;;;4.97;;
21095;SDS011;10706;49.036;12.112;2023-07-24T01:30:54;14.07;;;4.85;;
21095;SDS011;10706;49.036;12.112;2023-07-24T01:33:21;17.95;;;4.70;;
21095;SDS011;10706;49.036;12.112;2023-07-24T01:35:49;18.98;;;5.10;;
21095;SDS011;10706;49.036;12.112;2023-07-24T01:38:24;17.77;;;4.70;;
21095;SDS011;10706;49.036;12.112;2023-07-24T01:40:51;12.43;;;4.70;;
21095;SDS011;10706;49.036;12.112;2023-07-24T01:43:19;17.77;;;5.03;;
21095;SDS011;10706;49.036;12.112;2023-07-24T01:45:45;16.58;;;4.50;;
21095;SDS011;10706;49.036;12.112;2023-07-24T01:48:11;14.10;;;5.05;;
21095;SDS011;10706;49.036;12.112;2023-07-24T01:50:37;14.00;;;4.55;;
21095;SDS011;10706;49.036;12.112;2023-07-24T01:53:03;14.23;;;5.32;;
21095;SDS011;10706;49.036;12.112;2023-07-24T01:55:29;14.88;;;4.85;;
21095;SDS011;10706;49.036;12.112;2023-07-24T01:57:55;16.38;;;4.97;;
21095;SDS011;10706;49.036;12.112;2023-07-24T02:00:21;14.50;;;4.35;;
21095;SDS011;10706;49.036;12.112;2023-07-24T02:02:47;12.18;;;4.88;;
21095;SDS011;10706;49.036;12.112;2023-07-24T02:05:13;16.02;;;5.13;;
21095;SDS011;10706;49.036;12.112;2023-07-24T02:07:39;15.65;;;5.72;;
21095;SDS011;10706;49.036;12.112;2023-07-24T02:10:06;12.82;;;4.55;;
21095;SDS011;10706;49.036;12.112;2023-07-24T02:12:32;13.90;;;5.03;;
21095;SDS011;10706;49.036;12.112;2023-07-24T02:14:58;19.52;;;5.32;;
21095;SDS011;10706;49.036;12.112;2023-07-24T02:17:24;13.77;;;4.50;;
21095;SDS011;10706;49.036;12.112;2023-07-24T02:19:51;14.05;;;5.20;;
21095;SDS011;10706;49.036;12.112;2023-07-24T02:22:17;15.40;;;5.40;;
21095;SDS011;10706;49.036;12.112;2023-07-24T02:24:43;17.05;;;5.45;;
21095;SDS011;10706;49.036;12.112;2023-07-24T02:27:11;16.60;;;5.07;;
21095;SDS011;10706;49.036;12.112;2023-07-24T02:29:41;15.88;;;5.07;;
21095;SDS011;10706;49.036;12.112;2023-07-24T02:32:07;16.27;;;5.53;;
21095;SDS011;10706;49.036;12.112;2023-07-24T02:34:33;12.90;;;4.97;;
21095;SDS011;10706;49.036;12.112;2023-07-24T02:36:59;14.93;;;4.82;;
21095;SDS011;10706;49.036;12.112;2023-07-24T02:39:25;17.33;;;5.20;;
21095;SDS011;10706;49.036;12.112;2023-07-24T02:41:51;12.98;;;5.05;;
21095;SDS011;10706;49.036;12.112;2023-07-24T02:44:17;12.63;;;4.70;;
21095;SDS011;10706;49.036;12.112;2023-07-24T02:46:43;18.77;;;5.68;;
21095;SDS011;10706;49.036;12.112;2023-07-24T02:49:09;15.18;;;5.03;;
21095;SDS011;10706;49.036;12.112;2023-07-24T02:51:36;17.63;;;5.65;;
21095;SDS011;10706;49.036;12.112;2023-07-24T02:54:02;17.92;;;5.13;;
21095;SDS011;10706;49.036;12.112;2023-07-24T02:56:28;15.35;;;5.28;;
21095;SDS011;10706;49.036;12.112;2023-07-24T02:58:54;16.25;;;5.18;;
21095;SDS011;10706;49.036;12.112;2023-07-24T03:01:20;15.35;;;4.93;;
21095;SDS011;10706;49.036;12.112;2023-07-24T03:03:45;14.02;;;4.75;;
21095;SDS011;10706;49.036;12.112;2023-07-24T03:06:12;13.82;;;5.10;;
21095;SDS011;10706;49.036;12.112;2023-07-24T03:08:38;13.52;;;5.07;;
21095;SDS011;10706;49.036;12.112;2023-07-24T03:11:04;14.60;;;5.68;;
21095;SDS011;10706;49.036;12.112;2023-07-24T03:13:31;13.27;;;4.85;;
21095;SDS011;10706;49.036;12.112;2023-07-24T03:15:57;14.38;;;4.72;;
21095;SDS011;10706;49.036;12.112;2023-07-24T03:18:24;14.38;;;5.22;;
21095;SDS011;10706;49.036;12.112;2023-07-24T03:20:50;14.00;;;4.80;;
21095;SDS011;10706;49.036;12.112;2023-07-24T03:23:16;13.82;;;5.18;;
21095;SDS011;10706;49.036;12.112;2023-07-24T03:25:42;15.10;;;5.47;;
21095;SDS011;10706;49.036;12.112;2023-07-24T03:28:09;16.13;;;5.38;;
21095;SDS011;10706;49.036;12.112;2023-07-24T03:30:35;13.85;;;4.95;;
21095;SDS011;10706;49.036;12.112;2023-07-24T03:33:01;16.70;;;5.70;;
21095;SDS011;10706;49.036;12.112;2023-07-24T03:35:27;14.75;;;5.13;;
21095;SDS011;10706;49.036;12.112;2023-07-24T03:37:54;12.05;;;4.95;;
21095;SDS011;10706;49.036;12.112;2023-07-24T03:40:20;14.38;;;5.28;;
21095;SDS011;10706;49.036;12.112;2023-07-24T03:42:46;15.43;;;5.10;;
21095;SDS011;10706;49.036;12.112;2023-07-24T03:45:12;15.25;;;5.13;;
21095;SDS011;10706;49.036;12.112;2023-07-24T03:47:38;15.38;;;5.60;;
21095;SDS011;10706;49.036;12.112;2023-07-24T03:50:04;14.18;;;5.57;;
21095;SDS011;10706;49.036;12.112;2023-07-24T03:52:31;18.38;;;5.35;;
21095;SDS011;10706;49.036;12.112;2023-07-24T03:54:57;14.65;;;5.13;;
21095;SDS011;10706;49.036;12.112;2023-07-24T03:57:23;15.75;;;5.22;;
21095;SDS011;10706;49.036;12.112;2023-07-24T03:59:49;14.27;;;5.50;;
21095;SDS011;10706;49.036;12.112;2023-07-24T04:02:15;16.20;;;5.60;;
21095;SDS011;10706;49.036;12.112;2023-07-24T04:04:41;15.82;;;5.50;;
21095;SDS011;10706;49.036;12.112;2023-07-24T04:07:07;12.57;;;4.85;;
21095;SDS011;10706;49.036;12.112;2023-07-24T04:09:33;18.42;;;4.78;;
21095;SDS011;10706;49.036;12.112;2023-07-24T04:12:00;14.30;;;4.68;;
21095;SDS011;10706;49.036;12.112;2023-07-24T04:14:26;18.58;;;4.65;;
21095;SDS011;10706;49.036;12.112;2023-07-24T04:16:52;15.73;;;5.25;;
21095;SDS011;10706;49.036;12.112;2023-07-24T04:19:20;16.95;;;5.00;;
21095;SDS011;10706;49.036;12.112;2023-07-24T04:21:46;15.35;;;5.45;;
21095;SDS011;10706;49.036;12.112;2023-07-24T04:24:12;18.65;;;5.78;;
21095;SDS011;10706;49.036;12.112;2023-07-24T04:26:38;18.40;;;5.10;;
21095;SDS011;10706;49.036;12.112;2023-07-24T04:29:05;14.18;;;5.15;;
21095;SDS011;10706;49.036;12.112;2023-07-24T04:31:31;13.82;;;5.10;;
21095;SDS011;10706;49.036;12.112;2023-07-24T04:33:58;15.57;;;5.38;;
21095;SDS011;10706;49.036;12.112;2023-07-24T04:36:24;14.00;;;4.55;;
21095;SDS011;10706;49.036;12.112;2023-07-24T04:38:50;18.50;;;7.03;;
21095;SDS011;10706;49.036;12.112;2023-07-24T04:41:16;19.60;;;5.07;;
21095;SDS011;10706;49.036;12.112;2023-07-24T04:43:43;19.85;;;5.35;;
21095;SDS011;10706;49.036;12.112;2023-07-24T04:46:09;17.23;;;4.90;;
21095;SDS011;10706;49.036;12.112;2023-07-24T04:48:35;15.57;;;5.25;;
21095;SDS011;10706;49.036;12.112;2023-07-24T04:51:01;20.38;;;5.75;;
21095;SDS011;10706;49.036;12.112;2023-07-24T04:53:27;13.23;;;5.07;;
21095;SDS011;10706;49.036;12.112;2023-07-24T04:55:53;16.35;;;5.30;;
21095;SDS011;10706;49.036;12.112;2023-07-24T04:58:19;13.85;;;4.95;;
21095;SDS011;10706;49.036;12.112;2023-07-24T05:00:45;17.08;;;5.38;;
21095;SDS011;10706;49.036;12.112;2023-07-24T05:03:11;13.13;;;5.25;;
21095;SDS011;10706;49.036;12.112;2023-07-24T05:05:37;16.48;;;5.97;;
21095;SDS011;10706;49.036;12.112;2023-07-24T05:08:04;16.55;;;5.15;;
21095;SDS011;10706;49.036;12.112;2023-07-24T05:10:34;18.02;;;5.43;;
21095;SDS011;10706;49.036;12.112;2023-07-24T05:13:01;16.98;;;5.70;;
21095;SDS011;10706;49.036;12.112;2023-07-24T05:15:27;13.48;;;4.95;;
21095;SDS011;10706;49.036;12.112;2023-07-24T05:17:53;21.65;;;5.47;;
21095;SDS011;10706;49.036;12.112;2023-07-24T05:20:19;14.68;;;5.60;;
21095;SDS011;10706;49.036;12.112;2023-07-24T05:22:45;18.35;;;5.32;;
21095;SDS011;10706;49.036;12.112;2023-07-24T05:25:11;15.88;;;5.20;;
21095;SDS011;10706;49.036;12.112;2023-07-24T05:27:37;19.50;;;6.05;;
21095;SDS011;10706;49.036;12.112;2023-07-24T05:30:03;21.35;;;5.75;;
21095;SDS011;10706;49.036;12.112;2023-07-24T05:32:31;15.35;;;5.85;;
21095;SDS011;10706;49.036;12.112;2023-07-24T05:34:57;16.80;;;5.50;;
21095;SDS011;10706;49.036;12.112;2023-07-24T05:37:23;18.58;;;6.40;;
21095;SDS011;10706;49.036;12.112;2023-07-24T05:39:48;17.90;;;5.68;;
21095;SDS011;10706;49.036;12.112;2023-07-24T05:42:14;20.38;;;6.38;;
21095;SDS011;10706;49.036;12.112;2023-07-24T05:44:40;17.05;;;5.55;;
21095;SDS011;10706;49.036;12.112;2023-07-24T05:47:06;20.17;;;6.38;;
21095;SDS011;10706;49.036;12.112;2023-07-24T05:49:32;19.00;;;6.38;;
21095;SDS011;10706;49.036;12.112;2023-07-24T05:51:58;21.83;;;6.28;;
21095;SDS011;10706;49.036;12.112;2023-07-24T05:54:24;16.45;;;6.25;;
21095;SDS011;10706;49.036;12.112;2023-07-24T05:56:51;21.00;;;6.53;;
21095;SDS011;10706;49.036;12.112;2023-07-24T05:59:17;15.25;;;5.72;;
21095;SDS011;10706;49.036;12.112;2023-07-24T06:01:43;23.27;;;6.65;;
21095;SDS011;10706;49.036;12.112;2023-07-24T06:04:08;21.73;;;5.63;;
21095;SDS011;10706;49.036;12.112;2023-07-24T06:06:34;18.00;;;6.05;;
21095;SDS011;10706;49.036;12.112;2023-07-24T06:09:01;18.05;;;6.30;;
21095;SDS011;10706;49.036;12.112;2023-07-24T06:11:28;16.38;;;5.93;;
21095;SDS011;10706;49.036;12.112;2023-07-24T06:13:54;17.33;;;5.72;;
21095;SDS011;10706;49.036;12.112;2023-07-24T06:16:20;21.65;;;6.60;;
21095;SDS011;10706;49.036;12.112;2023-07-24T06:18:46;18.15;;;6.40;;
21095;SDS011;10706;49.036;12.112;2023-07-24T06:21:13;18.40;;;6.20;;
21095;SDS011;10706;49.036;12.112;2023-07-24T06:23:39;18.27;;;6.00;;
21095;SDS011;10706;49.036;12.112;2023-07-24T06:26:06;19.10;;;6.13;;
21095;SDS011;10706;49.036;12.112;2023-07-24T06:28:32;17.08;;;6.18;;
21095;SDS011;10706;49.036;12.112;2023-07-24T06:30:58;17.15;;;6.10;;
21095;SDS011;10706;49.036;12.112;2023-07-24T06:33:27;17.67;;;6.35;;
21095;SDS011;10706;49.036;12.112;2023-07-24T06:35:54;18.45;;;5.72;;
21095;SDS011;10706;49.036;12.112;2023-07-24T06:38:20;16.58;;;5.70;;
21095;SDS011;10706;49.036;12.112;2023-07-24T06:40:46;18.75;;;6.13;;
21095;SDS011;10706;49.036;12.112;2023-07-24T06:43:12;19.08;;;5.75;;
21095;SDS011;10706;49.036;12.112;2023-07-24T06:45:38;15.95;;;6.25;;
21095;SDS011;10706;49.036;12.112;2023-07-24T06:48:04;18.55;;;5.45;;
21095;SDS011;10706;49.036;12.112;2023-07-24T06:50:30;18.33;;;6.03;;
21095;SDS011;10706;49.036;12.112;2023-07-24T06:52:56;18.02;;;5.97;;
21095;SDS011;10706;49.036;12.112;2023-07-24T06:55:22;14.90;;;5.82;;
21095;SDS011;10706;49.036;12.112;2023-07-24T06:57:48;15.48;;;5.78;;
21095;SDS011;10706;49.036;12.112;2023-07-24T07:00:14;16.65;;;4.93;;
21095;SDS011;10706;49.036;12.112;2023-07-24T07:02:39;16.50;;;5.78;;
21095;SDS011;10706;49.036;12.112;2023-07-24T07:05:07;17.05;;;5.68;;
21095;SDS011;10706;49.036;12.112;2023-07-24T07:07:33;16.35;;;5.85;;
21095;SDS011;10706;49.036;12.112;2023-07-24T07:10:08;18.58;;;6.30;;
21095;SDS011;10706;49.036;12.112;2023-07-24T07:12:34;15.45;;;6.00;;
21095;SDS011;10706;49.036;12.112;2023-07-24T07:15:01;15.02;;;5.40;;
21095;SDS011;10706;49.036;12.112;2023-07-24T07:17:30;18.30;;;6.13;;
21095;SDS011;10706;49.036;12.112;2023-07-24T07:19:56;17.27;;;6.55;;
21095;SDS011;10706;49.036;12.112;2023-07-24T07:22:22;17.70;;;6.30;;
21095;SDS011;10706;49.036;12.112;2023-07-24T07:24:48;21.67;;;6.97;;
21095;SDS011;10706;49.036;12.112;2023-07-24T07:27:14;16.20;;;6.50;;
21095;SDS011;10706;49.036;12.112;2023-07-24T07:29:42;20.70;;;6.43;;
21095;SDS011;10706;49.036;12.112;2023-07-24T07:32:09;18.05;;;6.25;;
21095;SDS011;10706;49.036;12.112;2023-07-24T07:34:35;17.80;;;7.10;;
21095;SDS011;10706;49.036;12.112;2023-07-24T07:37:03;16.33;;;5.72;;
21095;SDS011;10706;49.036;12.112;2023-07-24T07:39:30;17.10;;;5.93;;
21095;SDS011;10706;49.036;12.112;2023-07-24T07:41:57;17.08;;;6.57;;
21095;SDS011;10706;49.036;12.112;2023-07-24T07:44:23;19.48;;;6.95;;
21095;SDS011;10706;49.036;12.112;2023-07-24T07:46:49;16.13;;;5.80;;
21095;SDS011;10706;49.036;12.112;2023-07-24T07:49:15;19.67;;;6.78;;
21095;SDS011;10706;49.036;12.112;2023-07-24T07:51:41;19.70;;;6.70;;
21095;SDS011;10706;49.036;12.112;2023-07-24T07:54:07;15.95;;;6.40;;
21095;SDS011;10706;49.036;12.112;2023-07-24T07:56:33;18.77;;;6.45;;
21095;SDS011;10706;49.036;12.112;2023-07-24T07:59:00;16.60;;;5.97;;
21095;SDS011;10706;49.036;12.112;2023-07-24T08:01:26;19.92;;;6.13;;
21095;SDS011;10706;49.036;12.112;2023-07-24T08:03:52;20.02;;;6.45;;
21095;SDS011;10706;49.036;12.112;2023-07-24T08:06:18;17.90;;;6.82;;
21095;SDS011;10706;49.036;12.112;2023-07-24T08:08:46;20.75;;;6.57;;
21095;SDS011;10706;49.036;12.112;2023-07-24T08:11:12;19.75;;;7.72;;
21095;SDS011;10706;49.036;12.112;2023-07-24T08:13:38;16.88;;;6.60;;
21095;SDS011;10706;49.036;12.112;2023-07-24T08:16:04;20.00;;;6.95;;
21095;SDS011;10706;49.036;12.112;2023-07-24T08:18:42;20.10;;;7.25;;
21095;SDS011;10706;49.036;12.112;2023-07-24T08:21:08;16.95;;;6.85;;
21095;SDS011;10706;49.036;12.112;2023-07-24T08:23:34;23.20;;;7.32;;
21095;SDS011;10706;49.036;12.112;2023-07-24T08:26:00;16.45;;;6.80;;
21095;SDS011;10706;49.036;12.112;2023-07-24T08:28:27;19.40;;;7.43;;
21095;SDS011;10706;49.036;12.112;2023-07-24T08:30:56;17.67;;;7.30;;
21095;SDS011;10706;49.036;12.112;2023-07-24T08:33:23;18.45;;;7.25;;
21095;SDS011;10706;49.036;12.112;2023-07-24T08:36:00;20.38;;;7.43;;
21095;SDS011;10706;49.036;12.112;2023-07-24T08:38:30;20.38;;;6.78;;
21095;SDS011;10706;49.036;12.112;2023-07-24T08:41:00;20.65;;;7.78;;
21095;SDS011;10706;49.036;12.112;2023-07-24T08:43:31;20.65;;;7.47;;
21095;SDS011;10706;49.036;12.112;2023-07-24T08:45:58;18.90;;;7.38;;
21095;SDS011;10706;49.036;12.112;2023-07-24T08:48:31;20.58;;;7.38;;
21095;SDS011;10706;49.036;12.112;2023-07-24T08:51:06;17.33;;;6.90;;
21095;SDS011;10706;49.036;12.112;2023-07-24T08:53:40;21.30;;;7.07;;
21095;SDS011;10706;49.036;12.112;2023-07-24T08:56:09;22.05;;;7.40;;
21095;SDS011;10706;49.036;12.112;2023-07-24T08:58:37;19.38;;;7.38;;
21095;SDS011;10706;49.036;12.112;2023-07-24T09:01:06;15.88;;;6.80;;
21095;SDS011;10706;49.036;12.112;2023-07-24T09:03:33;16.05;;;6.53;;
21095;SDS011;10706;49.036;12.112;2023-07-24T09:06:00;21.33;;;8.15;;
21095;SDS011;10706;49.036;12.112;2023-07-24T09:08:30;18.08;;;7.10;;
21095;SDS011;10706;49.036;12.112;2023-07-24T09:10:58;16.08;;;6.40;;
21095;SDS011;10706;49.036;12.112;2023-07-24T09:13:25;15.82;;;5.80;;
21095;SDS011;10706;49.036;12.112;2023-07-24T09:15:52;17.95;;;6.82;;
21095;SDS011;10706;49.036;12.112;2023-07-24T09:18:18;19.48;;;6.60;;
21095;SDS011;10706;49.036;12.112;2023-07-24T09:20:45;16.55;;;6.00;;
21095;SDS011;10706;49.036;12.112;2023-07-24T09:23:12;16.42;;;5.72;;
21095;SDS011;10706;49.036;12.112;2023-07-24T09:25:40;18.73;;;5.65;;
21095;SDS011;10706;49.036;12.112;2023-07-24T09:28:09;18.60;;;6.28;;
21095;SDS011;10706;49.036;12.112;2023-07-24T09:30:39;15.43;;;5.50;;
21095;SDS011;10706;49.036;12.112;2023-07-24T09:33:06;20.45;;;7.20;;
21095;SDS011;10706;49.036;12.112;2023-07-24T09:35:33;16.40;;;6.15;;
21095;SDS011;10706;49.036;12.112;2023-07-24T09:38:06;15.40;;;5.60;;
21095;SDS011;10706;49.036;12.112;2023-07-24T09:40:41;17.02;;;5.07;;
21095;SDS011;10706;49.036;12.112;2023-07-24T09:45:41;13.80;;;5.25;;
21095;SDS011;10706;49.036;12.112;2023-07-24T09:48:08;16.20;;;5.53;;
21095;SDS011;10706;49.036;12.112;2023-07-24T09:50:37;15.93;;;5.10;;
21095;SDS011;10706;49.036;12.112;2023-07-24T09:53:04;15.20;;;5.68;;
21095;SDS011;10706;49.036;12.112;2023-07-24T09:55:35;16.85;;;5.53;;
21095;SDS011;10706;49.036;12.112;2023-07-24T09:58:14;13.45;;;4.60;;
21095;SDS011;10706;49.036;12.112;2023-07-24T10:00:41;13.75;;;4.80;;
21095;SDS011;10706;49.036;12.112;2023-07-24T10:03:08;15.73;;;4.82;;
21095;SDS011;10706;49.036;12.112;2023-07-24T10:05:35;13.38;;;4.97;;
21095;SDS011;10706;49.036;12.112;2023-07-24T10:08:02;11.90;;;4.57;;
21095;SDS011;10706;49.036;12.112;2023-07-24T10:10:28;12.55;;;4.78;;
21095;SDS011;10706;49.036;12.112;2023-07-24T10:12:57;12.48;;;4.70;;
21095;SDS011;10706;49.036;12.112;2023-07-24T10:15:23;15.73;;;4.75;;
21095;SDS011;10706;49.036;12.112;2023-07-24T10:18:00;14.70;;;4.38;;
21095;SDS011;10706;49.036;12.112;2023-07-24T10:20:32;12.48;;;4.35;;
21095;SDS011;10706;49.036;12.112;2023-07-24T10:23:04;12.68;;;4.38;;
21095;SDS011;10706;49.036;12.112;2023-07-24T10:25:33;12.38;;;4.43;;
21095;SDS011;10706;49.036;12.112;2023-07-24T10:28:05;11.13;;;4.03;;
21095;SDS011;10706;49.036;12.112;2023-07-24T10:30:36;13.63;;;4.65;;
21095;SDS011;10706;49.036;12.112;2023-07-24T10:33:10;13.98;;;4.53;;
21095;SDS011;10706;49.036;12.112;2023-07-24T10:35:44;12.27;;;4.38;;
21095;SDS011;10706;49.036;12.112;2023-07-24T10:38:12;10.65;;;3.92;;
21095;SDS011;10706;49.036;12.112;2023-07-24T10:40:40;12.95;;;3.97;;
21095;SDS011;10706;49.036;12.112;2023-07-24T10:43:12;12.82;;;3.90;;
21095;SDS011;10706;49.036;12.112;2023-07-24T10:45:46;13.68;;;3.67;;
21095;SDS011;10706;49.036;12.112;2023-07-24T10:48:23;9.73;;;3.55;;
21095;SDS011;10706;49.036;12.112;2023-07-24T10:50:51;11.23;;;4.25;;
21095;SDS011;10706;49.036;12.112;2023-07-24T10:53:20;12.52;;;3.95;;
21095;SDS011;10706;49.036;12.112;2023-07-24T10:55:51;10.63;;;3.72;;
21095;SDS011;10706;49.036;12.112;2023-07-24T10:58:17;9.52;;;3.60;;
21095;SDS011;10706;49.036;12.112;2023-07-24T11:00:44;13.57;;;4.35;;
21095;SDS011;10706;49.036;12.112;2023-07-24T11:03:13;11.32;;;4.30;;
21095;SDS011;10706;49.036;12.112;2023-07-24T11:05:40;11.05;;;3.63;;
21095;SDS011;10706;49.036;12.112;2023-07-24T11:08:11;13.98;;;4.30;;
21095;SDS011;10706;49.036;12.112;2023-07-24T11:13:28;12.45;;;3.90;;
21095;SDS011;10706;49.036;12.112;2023-07-24T11:15:54;12.90;;;4.32;;
21095;SDS011;10706;49.036;12.112;2023-07-24T11:18:21;16.13;;;3.85;;
21095;SDS011;10706;49.036;12.112;2023-07-24T11:23:15;10.80;;;3.38;;
21095;SDS011;10706;49.036;12.112;2023-07-24T11:25:41;12.07;;;3.88;;
21095;SDS011;10706;49.036;12.112;2023-07-24T11:28:09;10.50;;;3.80;;
21095;SDS011;10706;49.036;12.112;2023-07-24T11:30:37;13.85;;;3.85;;
21095;SDS011;10706;49.036;12.112;2023-07-24T11:33:04;9.60;;;3.75;;
21095;SDS011;10706;49.036;12.112;2023-07-24T11:35:33;11.68;;;3.80;;
21095;SDS011;10706;49.036;12.112;2023-07-24T11:38:00;12.88;;;3.65;;
21095;SDS011;10706;49.036;12.112;2023-07-24T11:40:34;10.35;;;3.70;;
21095;SDS011;10706;49.036;12.112;2023-07-24T11:43:17;10.70;;;3.30;;
21095;SDS011;10706;49.036;12.112;2023-07-24T11:45:48;12.23;;;3.88;;
21095;SDS011;10706;49.036;12.112;2023-07-24T11:48:18;12.07;;;3.97;;
21095;SDS011;10706;49.036;12.112;2023-07-24T11:50:52;10.93;;;3.60;;
21095;SDS011;10706;49.036;12.112;2023-07-24T11:55:50;11.90;;;4.57;;
21095;SDS011;10706;49.036;12.112;2023-07-24T11:58:18;12.98;;;3.90;;
21095;SDS011;10706;49.036;12.112;2023-07-24T12:00:49;11.07;;;4.32;;
21095;SDS011;10706;49.036;12.112;2023-07-24T12:03:35;12.77;;;4.50;;
21095;SDS011;10706;49.036;12.112;2023-07-24T12:06:01;12.88;;;4.53;;
21095;SDS011;10706;49.036;12.112;2023-07-24T12:08:31;14.50;;;4.13;;
21095;SDS011;10706;49.036;12.112;2023-07-24T12:10:58;11.48;;;3.90;;
21095;SDS011;10706;49.036;12.112;2023-07-24T12:13:25;11.98;;;4.43;;
21095;SDS011;10706;49.036;12.112;2023-07-24T12:15:52;12.80;;;4.13;;
21095;SDS011;10706;49.036;12.112;2023-07-24T12:18:18;13.40;;;4.13;;
21095;SDS011;10706;49.036;12.112;2023-07-24T12:20:44;12.77;;;4.45;;
21095;SDS011;10706;49.036;12.112;2023-07-24T12:23:10;12.63;;;4.10;;
21095;SDS011;10706;49.036;12.112;2023-07-24T12:25:36;11.55;;;4.40;;
21095;SDS011;10706;49.036;12.112;2023-07-24T12:28:02;12.82;;;4.38;;
21095;SDS011;10706;49.036;12.112;2023-07-24T12:30:29;14.50;;;3.85;;
21095;SDS011;10706;49.036;12.112;2023-07-24T12:32:55;13.73;;;4.30;;
21095;SDS011;10706;49.036;12.112;2023-07-24T12:35:21;10.45;;;3.85;;
21095;SDS011;10706;49.036;12.112;2023-07-24T12:37:47;10.32;;;4.30;;
21095;SDS011;10706;49.036;12.112;2023-07-24T12:40:13;16.45;;;4.70;;
21095;SDS011;10706;49.036;12.112;2023-07-24T12:42:39;16.67;;;5.57;;
21095;SDS011;10706;49.036;12.112;2023-07-24T12:45:05;13.82;;;5.15;;
21095;SDS011;10706;49.036;12.112;2023-07-24T12:47:32;14.95;;;5.40;;
21095;SDS011;10706;49.036;12.112;2023-07-24T12:49:58;21.25;;;6.15;;
21095;SDS011;10706;49.036;12.112;2023-07-24T12:52:25;20.27;;;6.20;;
21095;SDS011;10706;49.036;12.112;2023-07-24T12:54:51;22.95;;;6.88;;
21095;SDS011;10706;49.036;12.112;2023-07-24T12:57:18;15.75;;;6.35;;
21095;SDS011;10706;49.036;12.112;2023-07-24T12:59:44;18.60;;;7.43;;
21095;SDS011;10706;49.036;12.112;2023-07-24T13:02:10;22.05;;;8.30;;
21095;SDS011;10706;49.036;12.112;2023-07-24T13:04:36;26.05;;;8.95;;
21095;SDS011;10706;49.036;12.112;2023-07-24T13:07:02;18.75;;;6.43;;
21095;SDS011;10706;49.036;12.112;2023-07-24T13:09:29;14.93;;;6.05;;
21095;SDS011;10706;49.036;12.112;2023-07-24T13:11:55;18.55;;;6.45;;
21095;SDS011;10706;49.036;12.112;2023-07-24T13:14:21;14.98;;;6.07;;
21095;SDS011;10706;49.036;12.112;2023-07-24T13:16:48;20.02;;;6.28;;
21095;SDS011;10706;49.036;12.112;2023-07-24T13:19:15;15.30;;;5.30;;
21095;SDS011;10706;49.036;12.112;2023-07-24T13:21:41;14.85;;;5.20;;
21095;SDS011;10706;49.036;12.112;2023-07-24T13:24:08;13.73;;;5.43;;
21095;SDS011;10706;49.036;12.112;2023-07-24T13:26:35;14.90;;;5.43;;
21095;SDS011;10706;49.036;12.112;2023-07-24T13:29:02;17.67;;;5.60;;
21095;SDS011;10706;49.036;12.112;2023-07-24T13:31:28;20.83;;;6.05;;
21095;SDS011;10706;49.036;12.112;2023-07-24T13:33:55;17.25;;;4.93;;
21095;SDS011;10706;49.036;12.112;2023-07-24T13:36:21;19.88;;;6.18;;
21095;SDS011;10706;49.036;12.112;2023-07-24T13:38:47;14.38;;;5.57;;
21095;SDS011;10706;49.036;12.112;2023-07-24T13:41:13;13.75;;;5.07;;
21095;SDS011;10706;49.036;12.112;2023-07-24T13:43:39;13.75;;;5.22;;
21095;SDS011;10706;49.036;12.112;2023-07-24T13:46:06;13.05;;;5.07;;
21095;SDS011;10706;49.036;12.112;2023-07-24T13:48:33;12.13;;;4.40;;
21095;SDS011;10706;49.036;12.112;2023-07-24T13:50:59;12.52;;;4.45;;
21095;SDS011;10706;49.036;12.112;2023-07-24T13:53:25;13.25;;;5.32;;
21095;SDS011;10706;49.036;12.112;2023-07-24T13:55:51;14.15;;;5.35;;
21095;SDS011;10706;49.036;12.112;2023-07-24T13:58:17;13.05;;;4.60;;
21095;SDS011;10706;49.036;12.112;2023-07-24T14:00:43;14.00;;;4.85;;
21095;SDS011;10706;49.036;12.112;2023-07-24T14:03:09;13.45;;;4.70;;
21095;SDS011;10706;49.036;12.112;2023-07-24T14:05:36;12.60;;;4.07;;
21095;SDS011;10706;49.036;12.112;2023-07-24T14:08:03;14.90;;;5.32;;
21095;SDS011;10706;49.036;12.112;2023-07-24T14:10:29;10.77;;;3.97;;
21095;SDS011;10706;49.036;12.112;2023-07-24T14:12:54;12.00;;;3.90;;
21095;SDS011;10706;49.036;12.112;2023-07-24T14:15:20;11.27;;;4.18;;
21095;SDS011;10706;49.036;12.112;2023-07-24T14:17:46;12.73;;;4.72;;
21095;SDS011;10706;49.036;12.112;2023-07-24T14:20:12;14.25;;;4.53;;
21095;SDS011;10706;49.036;12.112;2023-07-24T14:22:37;14.32;;;4.55;;
21095;SDS011;10706;49.036;12.112;2023-07-24T14:25:04;13.88;;;4.78;;
21095;SDS011;10706;49.036;12.112;2023-07-24T14:27:31;15.10;;;4.50;;
21095;SDS011;10706;49.036;12.112;2023-07-24T14:29:57;12.15;;;4.25;;
21095;SDS011;10706;49.036;12.112;2023-07-24T14:32:23;13.73;;;4.97;;
21095;SDS011;10706;49.036;12.112;2023-07-24T14:34:49;11.52;;;4.20;;
21095;SDS011;10706;49.036;12.112;2023-07-24T14:37:17;14.43;;;4.10;;